createdAt,value
2022-08-19T00:01:42.112Z,20.38
2022-08-19T00:04:12.474Z,20.36
2022-08-19T00:06:40.439Z,20.33
2022-08-19T00:09:11.143Z,20.28
2022-08-19T00:11:38.798Z,20.26
2022-08-19T00:14:08.237Z,20.24
2022-08-19T00:16:34.767Z,20.20
2022-08-19T00:19:01.183Z,20.15
2022-08-19T00:21:28.308Z,20.15
2022-08-19T00:23:58.976Z,20.11
2022-08-19T00:26:27.032Z,20.10
2022-08-19T00:28:53.456Z,20.09
2022-08-19T00:31:20.442Z,20.11
2022-08-19T00:33:46.836Z,20.10
2022-08-19T00:36:13.482Z,20.11
2022-08-19T00:38:44.196Z,20.09
2022-08-19T00:41:14.486Z,20.10
2022-08-19T00:43:42.131Z,20.07
2022-08-19T00:46:08.951Z,20.02
2022-08-19T00:48:37.000Z,19.97
2022-08-19T00:51:05.284Z,19.92
2022-08-19T00:53:34.287Z,19.87
2022-08-19T00:56:02.139Z,19.87
2022-08-19T00:58:33.341Z,19.85
2022-08-19T01:01:00.543Z,19.81
2022-08-19T01:03:27.011Z,19.79
2022-08-19T01:05:55.586Z,19.76
2022-08-19T01:08:23.125Z,19.73
2022-08-19T01:11:06.327Z,19.69
2022-08-19T01:13:44.609Z,19.64
2022-08-19T01:16:22.479Z,19.60
2022-08-19T01:18:49.990Z,19.60
2022-08-19T01:21:25.338Z,19.59
2022-08-19T01:23:51.954Z,19.54
2022-08-19T01:26:22.394Z,19.54
2022-08-19T01:28:51.883Z,19.58
2022-08-19T01:31:26.734Z,19.58
2022-08-19T01:33:57.193Z,19.62
2022-08-19T01:36:29.132Z,19.63
2022-08-19T01:38:56.166Z,19.63
2022-08-19T01:41:24.406Z,19.63
2022-08-19T01:44:09.985Z,19.57
2022-08-19T01:46:44.461Z,19.58
2022-08-19T01:49:11.452Z,19.60
2022-08-19T01:51:40.302Z,19.61
2022-08-19T01:54:08.207Z,19.60
2022-08-19T01:56:34.770Z,19.58
2022-08-19T01:59:04.768Z,19.54
2022-08-19T02:01:33.371Z,19.50
2022-08-19T02:04:01.496Z,19.44
2022-08-19T02:06:29.655Z,19.41
2022-08-19T02:08:59.608Z,19.38
2022-08-19T02:11:31.468Z,19.36
2022-08-19T02:13:58.455Z,19.32
2022-08-19T02:16:29.752Z,19.30
2022-08-19T02:18:56.141Z,19.30
2022-08-19T02:21:24.387Z,19.29
2022-08-19T02:23:51.667Z,19.31
2022-08-19T02:26:19.564Z,19.33
2022-08-19T02:28:46.125Z,19.37
2022-08-19T02:31:19.418Z,19.36
2022-08-19T02:33:47.313Z,19.35
2022-08-19T02:36:20.598Z,19.33
2022-08-19T02:38:55.092Z,19.33
2022-08-19T02:41:26.874Z,19.30
2022-08-19T02:44:29.599Z,19.29
2022-08-19T02:46:49.069Z,19.22
2022-08-19T02:49:18.827Z,19.20
2022-08-19T02:51:46.791Z,19.17
2022-08-19T02:54:14.317Z,19.13
2022-08-19T02:56:42.342Z,19.08
2022-08-19T02:59:11.896Z,19.03
2022-08-19T03:01:43.639Z,18.99
2022-08-19T03:04:14.181Z,18.95
2022-08-19T03:06:43.557Z,18.91
2022-08-19T03:09:11.042Z,18.87
2022-08-19T03:11:38.398Z,18.84
2022-08-19T03:14:07.355Z,18.83
2022-08-19T03:16:40.602Z,18.79
2022-08-19T03:19:07.216Z,18.78
2022-08-19T03:21:35.324Z,18.77
2022-08-19T03:24:09.474Z,18.76
2022-08-19T03:26:40.287Z,18.76
2022-08-19T03:29:07.525Z,18.72
2022-08-19T03:31:43.871Z,18.68
2022-08-19T03:34:28.281Z,18.65
2022-08-19T03:36:56.394Z,18.61
2022-08-19T03:39:24.867Z,18.62
2022-08-19T03:42:31.708Z,18.59
2022-08-19T03:44:46.799Z,18.56
2022-08-19T03:47:19.436Z,18.52
2022-08-19T03:49:46.264Z,18.51
2022-08-19T03:52:14.298Z,18.49
2022-08-19T03:54:40.938Z,18.43
2022-08-19T03:57:07.749Z,18.40
2022-08-19T03:59:36.589Z,18.39
2022-08-19T04:02:10.057Z,18.39
2022-08-19T04:04:38.452Z,18.41
2022-08-19T04:07:05.628Z,18.43
2022-08-19T04:09:34.714Z,18.40
2022-08-19T04:12:01.172Z,18.44
2022-08-19T04:14:31.115Z,18.46
2022-08-19T04:16:59.821Z,18.46
2022-08-19T04:19:29.660Z,18.46
2022-08-19T04:21:56.545Z,18.44
2022-08-19T04:24:24.270Z,18.42
2022-08-19T04:26:51.747Z,18.42
2022-08-19T04:29:22.772Z,18.41
2022-08-19T04:31:50.016Z,18.39
2022-08-19T04:34:18.456Z,18.36
2022-08-19T04:36:52.060Z,18.36
2022-08-19T04:40:10.813Z,18.34
2022-08-19T04:42:40.514Z,18.33
2022-08-19T04:45:13.227Z,18.31
2022-08-19T04:47:46.877Z,18.28
2022-08-19T04:50:21.112Z,18.28
2022-08-19T04:52:47.550Z,18.24
2022-08-19T04:55:17.679Z,18.24
2022-08-19T04:57:44.117Z,18.21
2022-08-19T05:00:12.018Z,18.21
2022-08-19T05:02:42.720Z,18.22
2022-08-19T05:05:09.408Z,18.23
2022-08-19T05:07:36.802Z,18.27
2022-08-19T05:10:05.728Z,18.32
2022-08-19T05:12:32.244Z,18.37
2022-08-19T05:14:59.376Z,18.42
2022-08-19T05:17:29.632Z,18.51
2022-08-19T05:20:17.432Z,18.60
2022-08-19T05:22:45.803Z,18.71
2022-08-19T05:25:15.913Z,18.83
2022-08-19T05:27:43.267Z,18.92
2022-08-19T05:30:11.642Z,19.00
2022-08-19T05:32:39.211Z,19.12
2022-08-19T05:35:07.579Z,19.26
2022-08-19T05:37:34.239Z,19.50
2022-08-19T05:40:00.851Z,19.76
2022-08-19T05:42:27.393Z,20.02
2022-08-19T05:44:54.519Z,20.32
2022-08-19T05:47:22.503Z,20.46
2022-08-19T05:49:51.194Z,20.50
2022-08-19T05:52:18.850Z,20.52
2022-08-19T05:57:29.823Z,20.76
2022-08-19T05:59:58.864Z,21.00
2022-08-19T06:02:32.009Z,21.37
2022-08-19T06:04:58.688Z,21.64
2022-08-19T06:07:25.489Z,21.91
2022-08-19T06:09:58.914Z,22.05
2022-08-19T06:12:39.205Z,22.08
2022-08-19T06:15:15.449Z,22.04
2022-08-19T06:17:45.115Z,21.93
2022-08-19T06:20:15.042Z,21.80
2022-08-19T06:22:43.772Z,21.64
2022-08-19T06:25:11.498Z,21.47
2022-08-19T06:27:48.298Z,21.33
2022-08-19T06:30:25.261Z,21.22
2022-08-19T06:32:51.902Z,21.14
2022-08-19T06:35:19.790Z,21.09
2022-08-19T06:37:46.352Z,21.05
2022-08-19T06:40:13.448Z,21.02
2022-08-19T06:42:44.447Z,20.99
2022-08-19T06:45:21.451Z,20.98
2022-08-19T06:47:55.307Z,20.89
2022-08-19T06:50:21.900Z,20.88
2022-08-19T06:52:51.624Z,20.87
2022-08-19T06:55:19.757Z,20.85
2022-08-19T06:57:47.375Z,20.82
2022-08-19T07:00:15.085Z,20.85
2022-08-19T07:02:49.732Z,20.83
2022-08-19T07:05:22.157Z,20.79
2022-08-19T07:07:48.719Z,20.79
2022-08-19T07:10:17.418Z,20.79
2022-08-19T07:12:43.837Z,20.76
2022-08-19T07:15:11.756Z,20.76
2022-08-19T07:17:40.178Z,20.74
2022-08-19T07:20:09.390Z,20.73
2022-08-19T07:22:38.445Z,20.73
2022-08-19T07:25:07.221Z,20.71
2022-08-19T07:27:34.965Z,20.67
2022-08-19T07:30:12.270Z,20.64
2022-08-19T07:32:42.737Z,20.65
2022-08-19T07:35:11.491Z,20.71
2022-08-19T07:37:49.821Z,20.73
2022-08-19T07:40:18.369Z,20.73
2022-08-19T07:42:49.239Z,20.75
2022-08-19T07:45:17.948Z,20.82
2022-08-19T07:47:50.060Z,20.86
2022-08-19T07:50:20.274Z,20.94
2022-08-19T07:52:48.900Z,20.99
2022-08-19T07:55:41.840Z,21.04
2022-08-19T07:58:05.861Z,21.07
2022-08-19T08:00:32.820Z,21.12
2022-08-19T08:02:59.230Z,21.18
2022-08-19T08:05:50.172Z,21.23
2022-08-19T08:08:44.229Z,21.23
2022-08-19T08:11:16.206Z,21.21
2022-08-19T08:13:44.377Z,21.22
2022-08-19T08:16:19.871Z,21.20
2022-08-19T08:18:50.724Z,21.23
2022-08-19T08:21:19.818Z,21.25
2022-08-19T08:23:46.432Z,21.27
2022-08-19T08:26:16.326Z,21.35
2022-08-19T08:28:47.879Z,21.47
2022-08-19T08:31:16.300Z,21.53
2022-08-19T08:33:50.222Z,21.58
2022-08-19T08:36:17.249Z,21.65
2022-08-19T08:38:47.556Z,21.78
2022-08-19T08:41:28.443Z,21.85
2022-08-19T08:44:09.692Z,21.91
2022-08-19T08:46:52.738Z,21.95
2022-08-19T08:49:46.355Z,22.00
2022-08-19T08:52:25.793Z,22.10
2022-08-19T08:55:03.295Z,22.22
2022-08-19T08:57:52.074Z,22.34
2022-08-19T09:00:24.994Z,22.43
2022-08-19T09:02:51.677Z,22.44
2022-08-19T09:05:22.705Z,22.48
2022-08-19T09:08:09.771Z,22.54
2022-08-19T09:10:47.132Z,22.60
2022-08-19T09:13:25.480Z,22.68
2022-08-19T09:15:59.345Z,22.72
2022-08-19T09:18:34.296Z,22.79
2022-08-19T09:21:01.124Z,22.97
2022-08-19T09:23:27.506Z,23.39
2022-08-19T09:25:54.309Z,23.74
2022-08-19T09:28:32.624Z,24.05
2022-08-19T09:31:08.197Z,24.27
2022-08-19T09:33:34.892Z,24.40
2022-08-19T09:36:09.480Z,24.46
2022-08-19T09:38:43.696Z,24.46
2022-08-19T09:41:18.102Z,24.40
2022-08-19T09:43:53.120Z,24.35
2022-08-19T09:46:22.885Z,24.40
2022-08-19T09:48:52.310Z,24.67
2022-08-19T09:51:25.215Z,24.99
2022-08-19T09:53:55.088Z,25.28
2022-08-19T09:56:23.527Z,25.33
2022-08-19T09:58:51.730Z,25.43
2022-08-19T10:01:27.234Z,25.56
2022-08-19T10:03:59.888Z,25.76
2022-08-19T10:06:45.941Z,26.09
2022-08-19T10:09:15.649Z,26.26
2022-08-19T10:11:54.679Z,26.50
2022-08-19T10:14:24.564Z,26.68
2022-08-19T10:16:52.766Z,26.82
2022-08-19T10:19:26.024Z,26.99
2022-08-19T10:21:53.524Z,27.28
2022-08-19T10:24:21.475Z,27.28
2022-08-19T10:26:56.013Z,27.26
2022-08-19T10:29:31.809Z,27.35
2022-08-19T10:32:09.794Z,27.55
2022-08-19T10:34:48.244Z,27.60
2022-08-19T10:37:23.706Z,27.62
2022-08-19T10:39:51.345Z,27.59
2022-08-19T10:42:27.707Z,27.66
2022-08-19T10:44:54.148Z,27.75
2022-08-19T10:47:25.911Z,27.73
2022-08-19T10:50:16.585Z,27.77
2022-08-19T10:52:49.640Z,28.02
2022-08-19T10:55:41.342Z,28.08
2022-08-19T10:58:14.121Z,27.95
2022-08-19T11:00:44.063Z,27.84
2022-08-19T11:03:12.526Z,27.70
2022-08-19T11:05:40.453Z,27.55
2022-08-19T11:08:23.795Z,27.53
2022-08-19T11:10:54.486Z,27.63
2022-08-19T11:13:21.128Z,27.81
2022-08-19T11:15:48.302Z,27.80
2022-08-19T11:18:14.703Z,27.76
2022-08-19T11:20:41.208Z,27.76
2022-08-19T11:23:08.013Z,27.75
2022-08-19T11:25:35.447Z,27.82
2022-08-19T11:28:01.964Z,27.81
2022-08-19T11:30:28.832Z,27.66
2022-08-19T11:32:57.679Z,27.48
2022-08-19T11:35:27.063Z,27.32
2022-08-19T11:37:53.633Z,27.05
2022-08-19T11:40:20.313Z,26.98
2022-08-19T11:42:56.434Z,26.90
2022-08-19T11:45:28.131Z,26.71
2022-08-19T11:47:55.395Z,26.56
2022-08-19T11:50:24.263Z,26.42
2022-08-19T11:52:54.968Z,26.24
2022-08-19T11:55:21.904Z,26.21
2022-08-19T11:57:48.400Z,26.07
2022-08-19T12:00:15.729Z,25.91
2022-08-19T12:02:43.516Z,25.73
2022-08-19T12:05:12.679Z,25.57
2022-08-19T12:07:40.543Z,25.49
2022-08-19T12:10:07.370Z,25.35
2022-08-19T12:12:34.663Z,25.24
2022-08-19T12:15:01.040Z,25.16
2022-08-19T12:17:28.155Z,25.13
2022-08-19T12:19:55.394Z,25.04
2022-08-19T12:22:22.297Z,25.01
2022-08-19T12:24:51.632Z,25.01
2022-08-19T12:27:25.480Z,24.98
2022-08-19T12:30:02.696Z,24.98
2022-08-19T12:32:29.139Z,25.01
2022-08-19T12:34:55.562Z,25.15
2022-08-19T12:37:22.182Z,25.27
2022-08-19T12:39:48.633Z,25.37
2022-08-19T12:42:15.773Z,25.50
2022-08-19T12:44:43.842Z,25.59
2022-08-19T12:47:12.804Z,25.75
2022-08-19T12:49:55.268Z,25.87
2022-08-19T12:52:26.793Z,25.88
2022-08-19T12:54:55.608Z,25.90
2022-08-19T12:57:32.592Z,25.96
2022-08-19T13:00:12.466Z,25.97
2022-08-19T13:02:41.580Z,25.90
2022-08-19T13:05:12.012Z,25.87
2022-08-19T13:07:40.577Z,25.83
2022-08-19T13:10:09.942Z,25.80
2022-08-19T13:12:36.878Z,25.75
2022-08-19T13:15:03.675Z,25.72
2022-08-19T13:17:39.122Z,25.55
2022-08-19T13:20:16.453Z,25.51
2022-08-19T13:22:46.771Z,25.47
2022-08-19T13:25:14.450Z,25.42
2022-08-19T13:27:43.811Z,25.43
2022-08-19T13:30:31.168Z,25.51
2022-08-19T13:33:18.052Z,25.59
2022-08-19T13:35:58.147Z,25.71
2022-08-19T13:38:27.111Z,25.85
2022-08-19T13:40:57.505Z,26.00
2022-08-19T13:43:27.187Z,26.16
2022-08-19T13:45:56.587Z,26.23
2022-08-19T13:48:24.438Z,26.22
2022-08-19T13:50:50.971Z,26.25
2022-08-19T13:53:18.287Z,26.20
2022-08-19T13:55:45.374Z,26.24
2022-08-19T13:58:12.327Z,26.31
2022-08-19T14:00:42.885Z,26.38
2022-08-19T14:03:09.928Z,26.38
2022-08-19T14:05:37.840Z,26.42
2022-08-19T14:08:06.792Z,26.43
2022-08-19T14:10:34.416Z,26.45
2022-08-19T14:13:08.909Z,26.49
2022-08-19T14:15:35.370Z,26.51
2022-08-19T14:18:02.257Z,26.58
2022-08-19T14:20:28.908Z,26.59
2022-08-19T14:22:55.974Z,26.65
2022-08-19T14:25:25.648Z,26.66
2022-08-19T14:27:52.436Z,26.69
2022-08-19T14:30:24.129Z,26.73
2022-08-19T14:32:50.537Z,26.68
2022-08-19T14:35:17.466Z,26.67
2022-08-19T14:37:56.305Z,26.62
2022-08-19T14:40:26.905Z,26.58
2022-08-19T14:43:00.098Z,26.61
2022-08-19T14:45:31.025Z,26.72
2022-08-19T14:48:00.883Z,26.83
2022-08-19T14:50:27.735Z,26.90
2022-08-19T14:53:09.097Z,26.86
2022-08-19T14:55:45.741Z,26.77
2022-08-19T14:58:29.312Z,26.64
2022-08-19T15:00:59.886Z,26.56
2022-08-19T15:03:27.235Z,26.56
2022-08-19T15:05:56.184Z,26.55
2022-08-19T15:08:25.629Z,26.53
2022-08-19T15:10:53.059Z,26.47
2022-08-19T15:13:19.627Z,26.36
2022-08-19T15:15:49.034Z,26.35
2022-08-19T15:18:17.890Z,26.34
2022-08-19T15:20:46.729Z,26.29
2022-08-19T15:23:17.654Z,26.18
2022-08-19T15:25:44.353Z,26.11
2022-08-19T15:28:14.273Z,26.06
2022-08-19T15:30:41.194Z,26.00
2022-08-19T15:33:08.493Z,25.94
2022-08-19T15:35:34.895Z,25.86
2022-08-19T15:38:01.777Z,25.83
2022-08-19T15:40:48.771Z,25.81
2022-08-19T15:43:16.554Z,25.71
2022-08-19T15:45:49.290Z,25.70
2022-08-19T15:48:17.764Z,25.64
2022-08-19T15:50:44.134Z,25.53
2022-08-19T15:53:11.627Z,25.33
2022-08-19T15:55:45.548Z,25.09
2022-08-19T15:58:32.862Z,24.91
2022-08-19T16:01:23.961Z,24.75
2022-08-19T16:04:14.776Z,24.50
2022-08-19T16:06:46.740Z,24.32
2022-08-19T16:09:17.260Z,24.20
2022-08-19T16:11:45.983Z,24.04
2022-08-19T16:14:14.758Z,23.98
2022-08-19T16:16:47.189Z,23.89
2022-08-19T16:19:16.236Z,23.81
2022-08-19T16:21:45.805Z,23.76
2022-08-19T16:24:13.975Z,23.74
2022-08-19T16:26:42.686Z,23.75
2022-08-19T16:29:12.141Z,23.83
2022-08-19T16:31:44.470Z,23.88
2022-08-19T16:34:15.610Z,23.89
2022-08-19T16:36:43.390Z,23.88
2022-08-19T16:39:12.221Z,23.88
2022-08-19T16:41:40.531Z,23.91
2022-08-19T16:44:07.801Z,23.93
2022-08-19T16:46:37.257Z,23.93
2022-08-19T16:49:05.019Z,23.96
2022-08-19T16:51:33.725Z,23.98
2022-08-19T16:54:02.067Z,23.96
2022-08-19T16:56:29.545Z,23.94
2022-08-19T16:58:56.165Z,23.96
2022-08-19T17:01:22.703Z,24.00
2022-08-19T17:03:51.926Z,24.01
2022-08-19T17:06:21.434Z,24.00
2022-08-19T17:08:49.991Z,23.95
2022-08-19T17:11:19.064Z,23.93
2022-08-19T17:13:47.553Z,23.94
2022-08-19T17:16:19.892Z,23.99
2022-08-19T17:18:46.311Z,24.03
2022-08-19T17:21:13.078Z,24.07
2022-08-19T17:23:42.885Z,24.14
2022-08-19T17:26:16.877Z,24.13
2022-08-19T17:28:50.386Z,24.13
2022-08-19T17:31:18.747Z,24.10
2022-08-19T17:33:48.488Z,24.05
2022-08-19T17:36:23.500Z,24.02
2022-08-19T17:38:51.194Z,23.99
2022-08-19T17:41:17.579Z,23.90
2022-08-19T17:43:44.307Z,23.87
2022-08-19T17:46:17.672Z,23.87
2022-08-19T17:48:51.505Z,23.79
2022-08-19T17:51:42.098Z,23.76
2022-08-19T17:54:15.654Z,23.69
2022-08-19T17:56:43.477Z,23.66
2022-08-19T17:59:13.741Z,23.65
2022-08-19T18:01:52.643Z,23.67
2022-08-19T18:04:21.997Z,23.64
2022-08-19T18:06:53.640Z,23.61
2022-08-19T18:09:23.799Z,23.56
2022-08-19T18:11:52.744Z,23.54
2022-08-19T18:14:20.866Z,23.55
2022-08-19T18:16:47.324Z,23.57
2022-08-19T18:19:13.731Z,23.53
2022-08-19T18:21:40.757Z,23.49
2022-08-19T18:24:07.702Z,23.46
2022-08-19T18:26:34.804Z,23.46
2022-08-19T18:29:01.781Z,23.45
2022-08-19T18:31:28.997Z,23.40
2022-08-19T18:33:55.498Z,23.38
2022-08-19T18:36:50.181Z,23.38
2022-08-19T18:39:29.205Z,23.31
2022-08-19T18:42:14.351Z,23.23
2022-08-19T18:45:00.049Z,23.18
2022-08-19T18:47:45.336Z,23.20
2022-08-19T18:50:15.212Z,23.24
2022-08-19T18:52:43.139Z,23.25
2022-08-19T18:55:09.763Z,23.23
2022-08-19T18:57:36.150Z,23.19
2022-08-19T19:00:04.554Z,23.22
2022-08-19T19:02:38.503Z,23.21
2022-08-19T19:05:07.587Z,23.16
2022-08-19T19:07:34.616Z,23.07
2022-08-19T19:10:01.003Z,22.99
2022-08-19T19:12:30.652Z,22.98
2022-08-19T19:14:58.668Z,22.96
2022-08-19T19:17:28.522Z,22.88
2022-08-19T19:19:55.278Z,22.81
2022-08-19T19:22:23.437Z,22.77
2022-08-19T19:24:50.772Z,22.73
2022-08-19T19:27:20.842Z,22.71
2022-08-19T19:29:52.340Z,22.74
2022-08-19T19:32:28.524Z,22.74
2022-08-19T19:34:55.558Z,22.72
2022-08-19T19:37:22.510Z,22.71
2022-08-19T19:39:49.074Z,22.73
2022-08-19T19:42:23.837Z,22.72
2022-08-19T19:44:55.554Z,22.70
2022-08-19T19:47:27.657Z,22.63
2022-08-19T19:52:45.442Z,22.62
2022-08-19T19:55:17.711Z,22.67
2022-08-19T19:57:48.860Z,22.68
2022-08-19T20:00:22.567Z,22.63
2022-08-19T20:02:50.911Z,22.64
2022-08-19T20:05:20.695Z,22.61
2022-08-19T20:08:08.462Z,22.59
2022-08-19T20:10:35.239Z,22.58
2022-08-19T20:13:02.888Z,22.58
2022-08-19T20:15:31.260Z,22.57
2022-08-19T20:17:59.721Z,22.56
2022-08-19T20:20:26.610Z,22.50
2022-08-19T20:22:57.064Z,22.44
2022-08-19T20:25:24.235Z,22.34
2022-08-19T20:27:51.338Z,22.31
2022-08-19T20:30:21.587Z,22.28
2022-08-19T20:32:50.371Z,22.25
2022-08-19T20:35:20.965Z,22.24
2022-08-19T20:37:47.981Z,22.26
2022-08-19T20:40:16.476Z,22.26
2022-08-19T20:42:48.208Z,22.28
2022-08-19T20:45:33.292Z,22.31
2022-08-19T20:48:02.667Z,22.31
2022-08-19T20:50:32.348Z,22.28
2022-08-19T20:52:59.255Z,22.26
2022-08-19T20:55:26.588Z,22.29
2022-08-19T20:57:53.470Z,22.30
2022-08-19T21:00:20.233Z,22.28
2022-08-19T21:02:47.008Z,22.30
2022-08-19T21:05:13.735Z,22.32
2022-08-19T21:07:40.238Z,22.31
2022-08-19T21:10:08.954Z,22.32
2022-08-19T21:12:35.673Z,22.30
2022-08-19T21:15:02.353Z,22.30
2022-08-19T21:17:28.707Z,22.29
2022-08-19T21:19:58.462Z,22.32
2022-08-19T21:22:25.931Z,22.32
2022-08-19T21:24:57.870Z,22.35
2022-08-19T21:27:24.309Z,22.35
2022-08-19T21:29:51.754Z,22.37
2022-08-19T21:32:19.684Z,22.41
2022-08-19T21:34:46.898Z,22.39
2022-08-19T21:37:19.043Z,22.39
2022-08-19T21:39:53.080Z,22.40
2022-08-19T21:42:19.625Z,22.42
2022-08-19T21:44:46.206Z,22.42
2022-08-19T21:47:13.093Z,22.39
2022-08-19T21:49:39.968Z,22.36
2022-08-19T21:52:09.056Z,22.36
2022-08-19T21:54:38.028Z,22.37
2022-08-19T21:57:10.484Z,22.38
2022-08-19T21:59:39.702Z,22.38
2022-08-19T22:02:21.510Z,22.38
2022-08-19T22:04:52.625Z,22.36
2022-08-19T22:07:22.531Z,22.35
2022-08-19T22:09:51.713Z,22.28
2022-08-19T22:12:29.133Z,22.31
2022-08-19T22:14:56.739Z,22.31
2022-08-19T22:17:24.445Z,22.30
2022-08-19T22:19:54.916Z,22.31
2022-08-19T22:22:30.538Z,22.32
2022-08-19T22:25:05.720Z,22.33
2022-08-19T22:27:32.731Z,22.35
2022-08-19T22:30:03.972Z,22.35
2022-08-19T22:32:31.011Z,22.33
2022-08-19T22:34:59.137Z,22.32
2022-08-19T22:37:27.456Z,22.31
2022-08-19T22:39:56.055Z,22.31
2022-08-19T22:42:22.474Z,22.28
2022-08-19T22:44:49.176Z,22.29
2022-08-19T22:47:16.382Z,22.29
2022-08-19T22:49:44.148Z,22.27
2022-08-19T22:52:20.369Z,22.28
2022-08-19T22:55:01.543Z,22.25
2022-08-19T22:57:28.470Z,22.23
2022-08-19T22:59:56.908Z,22.21
2022-08-19T23:02:51.888Z,22.20
2022-08-19T23:05:21.903Z,22.15
2022-08-19T23:07:52.499Z,22.13
2022-08-19T23:10:26.658Z,22.09
2022-08-19T23:12:59.280Z,22.09
2022-08-19T23:15:29.995Z,22.08
2022-08-19T23:17:59.597Z,22.08
2022-08-19T23:20:29.547Z,22.08
2022-08-19T23:22:57.105Z,22.08
2022-08-19T23:25:27.666Z,22.05
2022-08-19T23:28:13.381Z,22.04
2022-08-19T23:30:44.557Z,22.02
2022-08-19T23:33:21.642Z,22.03
2022-08-19T23:35:48.492Z,22.03
2022-08-19T23:38:14.887Z,22.00
2022-08-19T23:40:41.286Z,21.99
2022-08-19T23:43:09.773Z,22.01
2022-08-19T23:45:40.696Z,22.03
2022-08-19T23:48:17.864Z,22.02
2022-08-19T23:50:47.486Z,22.02
2022-08-19T23:53:15.052Z,22.00
2022-08-19T23:55:44.643Z,22.00
2022-08-19T23:58:11.486Z,21.98
